createdAt,value
2024-03-10T00:00:17.817Z,44.75
2024-03-10T00:03:07.984Z,49.42
2024-03-10T00:05:36.996Z,46.83
2024-03-10T00:08:05.397Z,46.78
2024-03-10T00:10:38.822Z,51.63
2024-03-10T00:13:07.095Z,44.78
2024-03-10T00:15:34.794Z,50.95
2024-03-10T00:18:02.821Z,49.03
2024-03-10T00:20:31.065Z,47.40
2024-03-10T00:22:59.240Z,52.80
2024-03-10T00:25:28.039Z,56.08
2024-03-10T00:27:56.150Z,60.53
2024-03-10T00:30:24.936Z,57.17
2024-03-10T00:32:53.079Z,57.17
2024-03-10T00:35:21.349Z,57.85
2024-03-10T00:37:49.598Z,57.78
2024-03-10T00:40:17.683Z,54.22
2024-03-10T00:42:46.132Z,56.42
2024-03-10T00:45:15.462Z,60.78
2024-03-10T00:47:44.439Z,55.25
2024-03-10T00:50:12.436Z,53.80
2024-03-10T00:52:42.452Z,57.65
2024-03-10T00:55:12.173Z,51.85
2024-03-10T00:57:42.211Z,53.20
2024-03-10T01:00:12.013Z,50.88
2024-03-10T01:02:41.371Z,54.90
2024-03-10T01:05:11.063Z,55.92
2024-03-10T01:07:39.963Z,58.80
2024-03-10T01:10:10.354Z,59.50
2024-03-10T01:12:41.208Z,53.63
2024-03-10T01:15:09.358Z,62.63
2024-03-10T01:17:37.548Z,53.88
2024-03-10T01:20:07.913Z,57.47
2024-03-10T01:22:36.138Z,55.17
2024-03-10T01:25:05.746Z,58.75
2024-03-10T01:27:34.067Z,55.22
2024-03-10T01:30:02.019Z,56.90
2024-03-10T01:32:31.139Z,56.15
2024-03-10T01:34:59.098Z,53.97
2024-03-10T01:37:27.123Z,58.13
2024-03-10T01:39:54.824Z,56.25
2024-03-10T01:42:22.925Z,60.75
2024-03-10T01:44:50.607Z,63.25
2024-03-10T01:47:18.752Z,60.13
2024-03-10T01:49:46.673Z,59.22
2024-03-10T01:52:14.745Z,64.22
2024-03-10T01:54:43.101Z,64.07
2024-03-10T01:57:11.821Z,64.93
2024-03-10T01:59:39.821Z,62.38
2024-03-10T02:02:08.221Z,65.05
2024-03-10T02:04:38.929Z,58.60
2024-03-10T02:07:07.428Z,58.75
2024-03-10T02:09:38.917Z,60.15
2024-03-10T02:12:08.022Z,68.75
2024-03-10T02:14:35.853Z,57.58
2024-03-10T02:17:04.884Z,55.53
2024-03-10T02:19:32.790Z,56.55
2024-03-10T02:22:00.946Z,66.63
2024-03-10T02:24:35.101Z,64.20
2024-03-10T02:27:04.211Z,58.05
2024-03-10T02:29:44.984Z,64.03
2024-03-10T02:32:31.849Z,62.33
2024-03-10T02:35:18.014Z,64.55
2024-03-10T02:38:04.419Z,57.92
2024-03-10T02:40:50.796Z,65.60
2024-03-10T02:43:37.397Z,62.15
2024-03-10T02:46:23.834Z,61.70
2024-03-10T02:48:51.923Z,62.28
2024-03-10T02:51:19.736Z,62.38
2024-03-10T02:53:50.386Z,61.83
2024-03-10T02:56:21.760Z,59.10
2024-03-10T02:58:49.821Z,63.53
2024-03-10T03:01:19.884Z,61.00
2024-03-10T03:03:48.077Z,68.20
2024-03-10T03:06:15.850Z,61.90
2024-03-10T03:08:44.230Z,61.53
2024-03-10T03:11:12.036Z,63.60
2024-03-10T03:13:40.102Z,60.17
2024-03-10T03:16:11.079Z,60.58
2024-03-10T03:18:41.547Z,63.75
2024-03-10T03:21:09.334Z,63.28
2024-03-10T03:23:37.794Z,67.00
2024-03-10T03:26:05.686Z,67.32
2024-03-10T03:28:34.126Z,56.40
2024-03-10T03:31:01.904Z,60.03
2024-03-10T03:33:29.873Z,63.85
2024-03-10T03:35:58.062Z,65.47
2024-03-10T03:38:26.238Z,66.78
2024-03-10T03:40:54.017Z,59.28
2024-03-10T03:43:22.117Z,62.50
2024-03-10T03:45:51.085Z,64.25
2024-03-10T03:48:20.061Z,62.45
2024-03-10T03:50:48.009Z,68.18
2024-03-10T03:53:16.090Z,64.15
2024-03-10T03:55:43.821Z,64.90
2024-03-10T03:58:11.802Z,68.68
2024-03-10T04:00:39.491Z,61.08
2024-03-10T04:03:07.644Z,66.65
2024-03-10T04:05:35.460Z,64.40
2024-03-10T04:08:03.594Z,62.03
2024-03-10T04:10:31.355Z,66.13
2024-03-10T04:12:59.290Z,73.05
2024-03-10T04:15:27.022Z,76.50
2024-03-10T04:17:55.084Z,87.00
2024-03-10T04:20:22.839Z,81.05
2024-03-10T04:22:50.889Z,80.82
2024-03-10T04:25:18.702Z,86.25
2024-03-10T04:27:47.284Z,70.78
2024-03-10T04:30:15.128Z,66.25
2024-03-10T04:32:43.188Z,61.00
2024-03-10T04:35:11.862Z,65.47
2024-03-10T04:37:40.082Z,59.88
2024-03-10T04:40:11.074Z,59.08
2024-03-10T04:42:39.464Z,58.15
2024-03-10T04:45:12.796Z,58.42
2024-03-10T04:47:41.024Z,60.28
2024-03-10T04:50:10.310Z,58.75
2024-03-10T04:52:38.847Z,67.47
2024-03-10T04:55:07.078Z,60.90
2024-03-10T04:57:35.207Z,59.80
2024-03-10T05:00:04.521Z,62.85
2024-03-10T05:02:33.087Z,57.90
2024-03-10T05:05:04.689Z,64.85
2024-03-10T05:07:32.770Z,64.70
2024-03-10T05:10:00.480Z,62.55
2024-03-10T05:12:28.512Z,57.90
2024-03-10T05:14:56.342Z,59.05
2024-03-10T05:17:24.750Z,58.38
2024-03-10T05:19:52.502Z,52.40
2024-03-10T05:22:20.563Z,59.72
2024-03-10T05:24:48.445Z,55.30
2024-03-10T05:27:17.175Z,58.45
2024-03-10T05:29:45.030Z,62.20
2024-03-10T05:32:13.177Z,55.28
2024-03-10T05:34:41.144Z,57.45
2024-03-10T05:37:09.340Z,56.88
2024-03-10T05:39:37.623Z,59.17
2024-03-10T05:42:06.490Z,58.20
2024-03-10T05:44:37.524Z,54.35
2024-03-10T05:47:05.943Z,52.72
2024-03-10T05:49:34.018Z,55.85
2024-03-10T05:52:02.131Z,53.80
2024-03-10T05:54:29.982Z,51.42
2024-03-10T05:57:00.154Z,51.38
2024-03-10T05:59:28.018Z,54.05
2024-03-10T06:01:56.445Z,57.58
2024-03-10T06:04:24.234Z,50.97
2024-03-10T06:06:52.967Z,50.20
2024-03-10T06:09:20.795Z,43.53
2024-03-10T06:11:48.943Z,49.22
2024-03-10T06:14:17.609Z,50.05
2024-03-10T06:16:46.375Z,52.85
2024-03-10T06:19:34.427Z,51.38
2024-03-10T06:22:21.306Z,53.90
2024-03-10T06:25:07.868Z,51.33
2024-03-10T06:27:36.083Z,51.83
2024-03-10T06:30:04.103Z,49.10
2024-03-10T06:32:32.335Z,48.47
2024-03-10T06:35:00.303Z,51.08
2024-03-10T06:37:28.363Z,51.83
2024-03-10T06:39:56.095Z,47.72
2024-03-10T06:42:24.257Z,53.05
2024-03-10T06:44:52.153Z,49.65
2024-03-10T06:47:22.055Z,46.83
2024-03-10T06:49:49.850Z,44.08
2024-03-10T06:52:18.078Z,48.58
2024-03-10T06:54:45.850Z,44.70
2024-03-10T06:57:13.959Z,46.80
2024-03-10T06:59:45.544Z,46.47
2024-03-10T07:02:13.861Z,46.38
2024-03-10T07:04:42.012Z,41.67
2024-03-10T07:07:10.118Z,50.55
2024-03-10T07:09:37.948Z,43.22
2024-03-10T07:12:07.666Z,43.17
2024-03-10T07:14:36.528Z,46.17
2024-03-10T07:17:05.255Z,44.60
2024-03-10T07:19:33.769Z,46.92
2024-03-10T07:22:01.943Z,42.75
2024-03-10T07:24:29.704Z,48.70
2024-03-10T07:26:57.710Z,41.67
2024-03-10T07:29:25.523Z,43.65
2024-03-10T07:31:54.194Z,40.55
2024-03-10T07:34:21.893Z,41.60
2024-03-10T07:36:49.937Z,41.10
2024-03-10T07:39:17.771Z,39.92
2024-03-10T07:41:45.921Z,36.70
2024-03-10T07:44:13.740Z,37.20
2024-03-10T07:46:41.799Z,35.10
2024-03-10T07:49:11.350Z,38.97
2024-03-10T07:51:39.795Z,36.45
2024-03-10T07:54:07.603Z,37.35
2024-03-10T07:56:35.720Z,35.33
2024-03-10T07:59:03.559Z,36.50
2024-03-10T08:01:31.753Z,34.10
2024-03-10T08:03:59.454Z,33.67
2024-03-10T08:06:27.532Z,35.08
2024-03-10T08:08:55.394Z,33.58
2024-03-10T08:11:23.740Z,29.80
2024-03-10T08:13:51.677Z,30.95
2024-03-10T08:16:20.951Z,30.80
2024-03-10T08:18:51.070Z,31.33
2024-03-10T08:21:19.960Z,26.80
2024-03-10T08:23:47.866Z,29.98
2024-03-10T08:26:16.010Z,29.33
2024-03-10T08:28:44.009Z,28.98
2024-03-10T08:31:14.179Z,27.90
2024-03-10T08:33:42.027Z,30.05
2024-03-10T08:36:10.555Z,27.17
2024-03-10T08:38:38.699Z,25.98
2024-03-10T08:41:06.758Z,26.27
2024-03-10T08:43:35.999Z,23.88
2024-03-10T08:46:04.419Z,23.27
2024-03-10T08:48:32.291Z,21.70
2024-03-10T08:51:00.593Z,19.85
2024-03-10T08:53:28.755Z,20.25
2024-03-10T08:55:57.075Z,21.88
2024-03-10T08:58:24.849Z,18.17
2024-03-10T09:00:53.379Z,20.83
2024-03-10T09:03:23.041Z,21.45
2024-03-10T09:05:51.227Z,24.85
2024-03-10T09:08:18.993Z,20.30
2024-03-10T09:10:53.652Z,19.10
2024-03-10T09:13:30.546Z,22.07
2024-03-10T09:15:58.575Z,22.90
2024-03-10T09:18:27.112Z,19.15
2024-03-10T09:20:55.446Z,19.33
2024-03-10T09:23:23.219Z,21.35
2024-03-10T09:25:51.842Z,20.38
2024-03-10T09:28:22.058Z,22.50
2024-03-10T09:30:50.165Z,20.00
2024-03-10T09:33:23.612Z,20.73
2024-03-10T09:35:56.760Z,18.70
2024-03-10T09:38:24.799Z,22.13
2024-03-10T09:40:52.857Z,19.52
2024-03-10T09:43:23.170Z,17.98
2024-03-10T09:45:53.473Z,23.13
2024-03-10T09:48:23.543Z,20.48
2024-03-10T09:50:53.556Z,19.05
2024-03-10T09:53:21.805Z,22.38
2024-03-10T09:55:50.316Z,23.70
2024-03-10T09:58:30.078Z,23.55
2024-03-10T10:01:13.530Z,21.65
2024-03-10T10:03:51.366Z,18.48
2024-03-10T10:06:21.550Z,20.60
2024-03-10T10:08:56.498Z,20.23
2024-03-10T10:11:25.221Z,24.45
2024-03-10T10:14:16.176Z,24.70
2024-03-10T10:17:00.424Z,19.30
2024-03-10T10:19:33.402Z,21.23
2024-03-10T10:22:07.124Z,22.13
2024-03-10T10:24:35.141Z,21.92
2024-03-10T10:27:04.428Z,20.38
2024-03-10T10:29:48.747Z,18.48
2024-03-10T10:32:21.900Z,19.67
2024-03-10T10:34:53.586Z,21.73
2024-03-10T10:37:22.312Z,17.45
2024-03-10T10:39:50.332Z,19.77
2024-03-10T10:42:29.727Z,19.52
2024-03-10T10:45:03.005Z,19.65
2024-03-10T10:47:33.056Z,19.30
2024-03-10T10:50:01.519Z,17.80
2024-03-10T10:52:29.916Z,19.13
2024-03-10T10:54:57.728Z,18.80
2024-03-10T10:57:26.905Z,20.63
2024-03-10T10:59:54.711Z,16.33
2024-03-10T11:02:22.923Z,16.80
2024-03-10T11:04:54.689Z,16.20
2024-03-10T11:07:29.083Z,18.45
2024-03-10T11:12:25.590Z,19.48
2024-03-10T11:14:55.117Z,17.73
2024-03-10T11:17:24.974Z,15.57
2024-03-10T11:19:54.357Z,14.27
2024-03-10T11:22:26.867Z,15.63
2024-03-10T11:25:09.858Z,20.73
2024-03-10T11:27:46.349Z,15.60
2024-03-10T11:30:49.407Z,17.92
2024-03-10T11:33:25.392Z,19.90
2024-03-10T11:35:56.641Z,20.48
2024-03-10T11:38:24.864Z,18.88
2024-03-10T11:41:01.305Z,16.40
2024-03-10T11:43:30.212Z,18.63
2024-03-10T11:45:58.555Z,19.60
2024-03-10T11:48:28.703Z,21.02
2024-03-10T11:50:56.726Z,20.27
2024-03-10T11:53:28.134Z,18.02
2024-03-10T11:56:02.452Z,17.77
2024-03-10T11:58:31.201Z,17.83
2024-03-10T12:01:03.726Z,18.15
2024-03-10T12:03:34.500Z,16.63
2024-03-10T12:06:03.657Z,18.13
2024-03-10T12:08:39.701Z,14.35
2024-03-10T12:11:07.886Z,19.00
2024-03-10T12:13:42.350Z,17.17
2024-03-10T12:16:12.248Z,15.68
2024-03-10T12:18:43.265Z,17.92
2024-03-10T12:21:19.635Z,16.92
2024-03-10T12:23:48.189Z,19.77
2024-03-10T12:26:17.407Z,17.08
2024-03-10T12:28:49.128Z,17.27
2024-03-10T12:31:18.365Z,14.35
2024-03-10T12:33:47.900Z,17.40
2024-03-10T12:36:15.731Z,13.75
2024-03-10T12:38:44.972Z,16.95
2024-03-10T12:41:15.347Z,16.45
2024-03-10T12:43:43.638Z,16.63
2024-03-10T12:46:16.438Z,17.60
2024-03-10T12:48:49.060Z,14.60
2024-03-10T12:51:17.949Z,16.08
2024-03-10T12:53:46.587Z,17.15
2024-03-10T12:56:15.049Z,18.92
2024-03-10T12:58:44.943Z,18.85
2024-03-10T13:01:13.079Z,16.98
2024-03-10T13:03:40.960Z,14.48
2024-03-10T13:06:09.067Z,15.82
2024-03-10T13:08:36.893Z,17.25
2024-03-10T13:11:06.856Z,14.10
2024-03-10T13:13:34.660Z,17.10
2024-03-10T13:16:02.896Z,14.07
2024-03-10T13:18:30.632Z,14.82
2024-03-10T13:20:59.133Z,17.08
2024-03-10T13:23:26.972Z,15.43
2024-03-10T13:25:55.015Z,18.23
2024-03-10T13:28:24.059Z,18.50
2024-03-10T13:30:52.260Z,18.25
2024-03-10T13:33:20.368Z,14.02
2024-03-10T13:35:50.561Z,14.50
2024-03-10T13:38:21.350Z,18.00
2024-03-10T13:40:50.747Z,15.13
2024-03-10T13:43:18.948Z,15.70
2024-03-10T13:45:46.970Z,18.15
2024-03-10T13:48:14.840Z,19.75
2024-03-10T13:50:44.130Z,18.40
2024-03-10T13:53:12.975Z,17.75
2024-03-10T13:55:41.808Z,18.50
2024-03-10T13:58:13.443Z,15.85
2024-03-10T14:00:41.992Z,16.75
2024-03-10T14:03:09.776Z,18.30
2024-03-10T14:05:38.406Z,15.23
2024-03-10T14:08:07.372Z,18.17
2024-03-10T14:10:35.550Z,14.20
2024-03-10T14:13:04.442Z,16.60
2024-03-10T14:15:41.007Z,19.17
2024-03-10T14:18:09.734Z,16.27
2024-03-10T14:20:38.327Z,16.77
2024-03-10T14:23:07.045Z,15.13
2024-03-10T14:25:35.241Z,17.25
2024-03-10T14:28:03.360Z,17.33
2024-03-10T14:30:32.864Z,17.70
2024-03-10T14:33:04.339Z,15.77
2024-03-10T14:35:32.971Z,16.50
2024-03-10T14:38:00.977Z,15.50
2024-03-10T14:40:30.399Z,17.00
2024-03-10T14:42:59.543Z,16.58
2024-03-10T14:45:30.657Z,16.52
2024-03-10T14:47:58.957Z,17.08
2024-03-10T14:50:33.765Z,17.40
2024-03-10T14:53:02.579Z,17.77
2024-03-10T14:55:31.127Z,16.25
2024-03-10T14:58:01.718Z,15.77
2024-03-10T15:00:38.845Z,18.55
2024-03-10T15:03:12.000Z,17.55
2024-03-10T15:05:43.644Z,19.23
2024-03-10T15:08:17.214Z,19.15
2024-03-10T15:10:47.652Z,20.27
2024-03-10T15:13:17.723Z,16.00
2024-03-10T15:15:45.937Z,16.95
2024-03-10T15:18:14.338Z,17.88
2024-03-10T15:20:47.840Z,19.15
2024-03-10T15:23:21.235Z,16.92
2024-03-10T15:25:51.447Z,16.90
2024-03-10T15:28:21.287Z,17.33
2024-03-10T15:30:49.934Z,20.48
2024-03-10T15:33:18.193Z,23.02
2024-03-10T15:35:46.567Z,19.20
2024-03-10T15:38:15.321Z,22.13
2024-03-10T15:40:44.482Z,20.88
2024-03-10T15:43:13.955Z,20.83
2024-03-10T15:45:43.807Z,22.38
2024-03-10T15:48:12.735Z,26.45
2024-03-10T15:50:40.943Z,23.13
2024-03-10T15:53:11.518Z,20.75
2024-03-10T15:55:39.833Z,23.83
2024-03-10T15:58:08.879Z,20.05
2024-03-10T16:00:39.900Z,20.23
2024-03-10T16:03:12.434Z,20.17
2024-03-10T16:05:50.973Z,21.00
2024-03-10T16:08:22.408Z,19.55
2024-03-10T16:10:51.383Z,20.55
2024-03-10T16:13:31.870Z,19.60
2024-03-10T16:16:02.243Z,20.75
2024-03-10T16:18:33.417Z,19.27
2024-03-10T16:21:03.103Z,18.55
2024-03-10T16:23:31.242Z,23.05
2024-03-10T16:25:59.352Z,22.70
2024-03-10T16:28:27.507Z,24.02
2024-03-10T16:30:55.368Z,27.13
2024-03-10T16:33:23.377Z,24.88
2024-03-10T16:35:51.157Z,25.13
2024-03-10T16:38:19.414Z,28.60
2024-03-10T16:40:47.731Z,25.02
2024-03-10T16:43:17.938Z,26.65
2024-03-10T16:45:49.465Z,29.33
2024-03-10T16:48:18.347Z,26.60
2024-03-10T16:50:46.374Z,25.38
2024-03-10T16:53:16.453Z,27.25
2024-03-10T16:55:47.773Z,22.50
2024-03-10T16:58:20.660Z,26.67
2024-03-10T17:00:48.733Z,21.60
2024-03-10T17:03:16.938Z,23.38
2024-03-10T17:05:45.135Z,22.92
2024-03-10T17:08:15.041Z,24.67
2024-03-10T17:10:45.403Z,23.08
2024-03-10T17:13:15.299Z,28.30
2024-03-10T17:15:43.671Z,25.45
2024-03-10T17:18:14.294Z,24.08
2024-03-10T17:20:42.813Z,21.25
2024-03-10T17:23:13.899Z,20.70
2024-03-10T17:25:41.904Z,18.58
2024-03-10T17:28:10.016Z,26.67
2024-03-10T17:30:37.729Z,21.95
2024-03-10T17:33:07.042Z,21.73
2024-03-10T17:35:35.595Z,22.55
2024-03-10T17:38:05.708Z,23.55
2024-03-10T17:40:33.868Z,19.20
2024-03-10T17:43:01.915Z,22.27
2024-03-10T17:45:29.707Z,24.33
2024-03-10T17:47:57.805Z,21.38
2024-03-10T17:50:26.106Z,28.67
2024-03-10T17:52:54.232Z,30.60
2024-03-10T17:55:22.105Z,23.60
2024-03-10T17:57:50.157Z,22.42
2024-03-10T18:00:23.633Z,23.65
2024-03-10T18:05:19.758Z,23.92
2024-03-10T18:07:52.325Z,26.50
2024-03-10T18:10:24.013Z,22.17
2024-03-10T18:12:52.528Z,15.77
2024-03-10T18:15:26.762Z,24.25
2024-03-10T18:17:54.965Z,19.67
2024-03-10T18:20:26.118Z,24.08
2024-03-10T18:22:54.740Z,24.40
2024-03-10T18:25:22.892Z,25.77
2024-03-10T18:27:51.929Z,19.67
2024-03-10T18:30:19.756Z,20.25
2024-03-10T18:32:47.945Z,22.92
2024-03-10T18:35:18.830Z,24.40
2024-03-10T18:37:46.927Z,19.80
2024-03-10T18:40:15.807Z,23.90
2024-03-10T18:42:44.914Z,19.17
2024-03-10T18:45:14.539Z,24.15
2024-03-10T18:47:43.129Z,23.20
2024-03-10T18:50:12.956Z,19.13
2024-03-10T18:52:42.657Z,18.15
2024-03-10T18:55:13.008Z,16.80
2024-03-10T18:57:42.300Z,21.58
2024-03-10T19:00:13.272Z,21.25
2024-03-10T19:02:42.798Z,19.63
2024-03-10T19:05:12.619Z,18.58
2024-03-10T19:07:42.260Z,18.13
2024-03-10T19:10:11.286Z,22.27
2024-03-10T19:12:46.157Z,20.75
2024-03-10T19:15:15.555Z,19.92
2024-03-10T19:17:44.870Z,19.08
2024-03-10T19:20:19.301Z,20.38
2024-03-10T19:22:56.034Z,17.65
2024-03-10T19:25:26.905Z,19.00
2024-03-10T19:27:55.313Z,17.95
2024-03-10T19:30:23.410Z,15.57
2024-03-10T19:32:51.914Z,22.35
2024-03-10T19:35:23.046Z,17.80
2024-03-10T19:37:52.248Z,19.30
2024-03-10T19:40:20.705Z,18.42
2024-03-10T19:42:50.282Z,22.25
2024-03-10T19:45:22.252Z,18.10
2024-03-10T19:47:50.984Z,17.88
2024-03-10T19:50:19.483Z,19.05
2024-03-10T19:52:50.344Z,17.25
2024-03-10T19:55:18.655Z,16.25
2024-03-10T19:57:46.821Z,17.58
2024-03-10T20:00:17.880Z,18.98
2024-03-10T20:02:47.603Z,19.67
2024-03-10T20:05:16.183Z,19.20
2024-03-10T20:07:48.777Z,19.08
2024-03-10T20:10:19.626Z,18.67
2024-03-10T20:12:50.798Z,20.20
2024-03-10T20:15:19.534Z,24.40
2024-03-10T20:17:50.536Z,15.18
2024-03-10T20:20:26.460Z,22.55
2024-03-10T20:22:56.287Z,18.83
2024-03-10T20:25:25.964Z,14.75
2024-03-10T20:27:57.211Z,15.70
2024-03-10T20:30:26.386Z,19.88
2024-03-10T20:32:54.500Z,15.93
2024-03-10T20:35:22.549Z,16.25
2024-03-10T20:37:50.733Z,16.98
2024-03-10T20:40:19.308Z,18.27
2024-03-10T20:42:48.725Z,17.17
2024-03-10T20:45:17.015Z,17.80
2024-03-10T20:47:47.705Z,17.83
2024-03-10T20:50:23.543Z,14.55
2024-03-10T20:52:53.689Z,16.90
2024-03-10T20:55:22.272Z,17.42
2024-03-10T20:57:50.335Z,15.20
2024-03-10T21:00:23.489Z,17.08
2024-03-10T21:05:22.965Z,20.13
2024-03-10T21:07:53.757Z,16.33
2024-03-10T21:10:23.588Z,16.27
2024-03-10T21:12:52.913Z,18.25
2024-03-10T21:15:23.828Z,16.33
2024-03-10T21:17:53.804Z,12.50
2024-03-10T21:20:24.317Z,16.75
2024-03-10T21:22:53.409Z,14.25
2024-03-10T21:25:24.270Z,13.48
2024-03-10T21:27:52.478Z,14.43
2024-03-10T21:30:20.369Z,14.45
2024-03-10T21:32:48.774Z,17.38
2024-03-10T21:35:19.316Z,13.65
2024-03-10T21:37:48.929Z,13.30
2024-03-10T21:40:17.725Z,15.98
2024-03-10T21:42:45.923Z,16.50
2024-03-10T21:45:13.698Z,13.65
2024-03-10T21:47:45.249Z,11.70
2024-03-10T21:50:15.567Z,13.75
2024-03-10T21:52:45.286Z,15.02
2024-03-10T21:55:13.964Z,16.25
2024-03-10T21:57:42.002Z,14.60
2024-03-10T22:00:16.730Z,16.15
2024-03-10T22:02:46.617Z,14.32
2024-03-10T22:05:15.574Z,21.20
2024-03-10T22:07:44.533Z,14.52
2024-03-10T22:10:15.043Z,14.98
2024-03-10T22:12:47.044Z,13.68
2024-03-10T22:15:19.070Z,14.35
2024-03-10T22:17:51.128Z,15.15
2024-03-10T22:20:27.199Z,11.98
2024-03-10T22:22:56.951Z,13.45
2024-03-10T22:25:28.178Z,13.38
2024-03-10T22:27:57.648Z,12.93
2024-03-10T22:30:28.704Z,12.18
2024-03-10T22:32:58.220Z,13.90
2024-03-10T22:35:27.161Z,13.60
2024-03-10T22:37:56.907Z,13.48
2024-03-10T22:40:25.549Z,14.93
2024-03-10T22:42:55.263Z,11.60
2024-03-10T22:45:30.621Z,13.07
2024-03-10T22:48:01.854Z,14.95
2024-03-10T22:50:30.674Z,14.32
2024-03-10T22:53:01.766Z,17.08
2024-03-10T22:55:30.546Z,11.00
2024-03-10T22:57:58.340Z,16.00
2024-03-10T23:00:26.567Z,13.63
2024-03-10T23:03:08.224Z,16.98
2024-03-10T23:05:37.501Z,15.35
2024-03-10T23:08:10.107Z,16.83
2024-03-10T23:10:39.953Z,12.85
2024-03-10T23:13:09.856Z,15.32
2024-03-10T23:15:38.197Z,18.08
2024-03-10T23:18:07.938Z,13.63
2024-03-10T23:20:39.382Z,15.35
2024-03-10T23:23:07.723Z,13.85
2024-03-10T23:25:36.369Z,14.23
2024-03-10T23:28:07.783Z,16.00
2024-03-10T23:30:39.035Z,15.13
2024-03-10T23:33:07.173Z,17.13
2024-03-10T23:35:35.449Z,17.90
2024-03-10T23:38:05.312Z,17.73
2024-03-10T23:40:33.966Z,16.15
2024-03-10T23:43:02.170Z,14.27
2024-03-10T23:45:30.991Z,13.52
2024-03-10T23:47:58.959Z,17.63
2024-03-10T23:50:28.098Z,14.75
2024-03-10T23:52:58.906Z,14.35
2024-03-10T23:55:44.781Z,13.30
2024-03-10T23:58:13.354Z,13.98
